sensor_id;sensor_type;location;lat;lon;timestamp;pressure;altitude;pressure_sealevel;temperature;humidity
73518;BME280;61766;60.318;25.044;2023-08-30T00:00:03;100871.61;;;17.47;39.71
73518;BME280;61766;60.318;25.044;2023-08-30T00:02:28;100872.03;;;17.92;39.63
73518;BME280;61766;60.318;25.044;2023-08-30T00:04:57;100869.69;;;17.91;39.71
73518;BME280;61766;60.318;25.044;2023-08-30T00:07:20;100870.20;;;17.70;39.54
73518;BME280;61766;60.318;25.044;2023-08-30T00:09:46;100868.35;;;17.73;39.29
73518;BME280;61766;60.318;25.044;2023-08-30T00:12:11;100868.26;;;17.74;39.39
73518;BME280;61766;60.318;25.044;2023-08-30T00:14:37;100869.02;;;17.68;39.48
73518;BME280;61766;60.318;25.044;2023-08-30T00:17:03;100872.84;;;17.91;39.55
73518;BME280;61766;60.318;25.044;2023-08-30T00:19:29;100868.60;;;17.67;39.23
73518;BME280;61766;60.318;25.044;2023-08-30T00:21:54;100864.72;;;17.68;39.32
73518;BME280;61766;60.318;25.044;2023-08-30T00:24:20;100865.76;;;17.87;39.28
73518;BME280;61766;60.318;25.044;2023-08-30T00:26:46;100868.12;;;17.82;39.21
73518;BME280;61766;60.318;25.044;2023-08-30T00:29:12;100865.85;;;17.58;39.24
73518;BME280;61766;60.318;25.044;2023-08-30T00:31:38;100863.20;;;17.83;39.08
73518;BME280;61766;60.318;25.044;2023-08-30T00:34:03;100860.24;;;17.58;39.17
73518;BME280;61766;60.318;25.044;2023-08-30T00:36:29;100863.46;;;17.57;39.17
73518;BME280;61766;60.318;25.044;2023-08-30T00:38:55;100870.92;;;17.54;39.83
73518;BME280;61766;60.318;25.044;2023-08-30T00:41:21;100869.27;;;17.46;39.76
73518;BME280;61766;60.318;25.044;2023-08-30T00:43:47;100868.24;;;17.47;39.73
73518;BME280;61766;60.318;25.044;2023-08-30T00:46:13;100868.98;;;17.46;39.63
73518;BME280;61766;60.318;25.044;2023-08-30T00:48:38;100873.69;;;17.43;39.75
73518;BME280;61766;60.318;25.044;2023-08-30T00:51:04;100876.65;;;17.47;39.59
73518;BME280;61766;60.318;25.044;2023-08-30T00:53:30;100877.42;;;17.49;39.43
73518;BME280;61766;60.318;25.044;2023-08-30T00:55:56;100873.41;;;17.48;39.45
73518;BME280;61766;60.318;25.044;2023-08-30T00:58:22;100872.33;;;17.18;39.90
73518;BME280;61766;60.318;25.044;2023-08-30T01:00:47;100869.12;;;17.17;40.06
73518;BME280;61766;60.318;25.044;2023-08-30T01:03:13;100871.32;;;17.40;40.01
73518;BME280;61766;60.318;25.044;2023-08-30T01:05:39;100871.50;;;17.25;40.20
73518;BME280;61766;60.318;25.044;2023-08-30T01:08:05;100871.39;;;17.25;40.07
73518;BME280;61766;60.318;25.044;2023-08-30T01:10:37;100865.93;;;17.17;40.14
73518;BME280;61766;60.318;25.044;2023-08-30T01:13:00;100859.08;;;17.23;40.08
73518;BME280;61766;60.318;25.044;2023-08-30T01:15:23;100854.94;;;17.25;40.00
73518;BME280;61766;60.318;25.044;2023-08-30T01:17:51;100852.51;;;17.17;40.13
73518;BME280;61766;60.318;25.044;2023-08-30T01:20:17;100848.87;;;17.10;40.21
73518;BME280;61766;60.318;25.044;2023-08-30T01:22:47;100844.03;;;17.04;40.13
73518;BME280;61766;60.318;25.044;2023-08-30T01:25:17;100845.13;;;16.79;40.83
73518;BME280;61766;60.318;25.044;2023-08-30T01:27:31;100842.96;;;16.74;40.92
73518;BME280;61766;60.318;25.044;2023-08-30T01:29:57;100838.45;;;17.30;40.97
73518;BME280;61766;60.318;25.044;2023-08-30T01:32:23;100840.29;;;16.82;41.36
73518;BME280;61766;60.318;25.044;2023-08-30T01:34:49;100839.31;;;16.98;42.19
73518;BME280;61766;60.318;25.044;2023-08-30T01:37:15;100843.15;;;16.53;42.31
73518;BME280;61766;60.318;25.044;2023-08-30T01:39:41;100841.00;;;16.42;43.00
73518;BME280;61766;60.318;25.044;2023-08-30T01:42:07;100840.54;;;16.93;43.09
73518;BME280;61766;60.318;25.044;2023-08-30T01:44:33;100838.71;;;16.79;42.40
73518;BME280;61766;60.318;25.044;2023-08-30T01:46:58;100830.81;;;16.65;42.23
73518;BME280;61766;60.318;25.044;2023-08-30T01:49:24;100824.21;;;17.04;41.95
73518;BME280;61766;60.318;25.044;2023-08-30T01:51:50;100822.87;;;16.86;41.80
73518;BME280;61766;60.318;25.044;2023-08-30T01:54:20;100821.53;;;16.94;42.08
73518;BME280;61766;60.318;25.044;2023-08-30T01:56:41;100821.64;;;16.85;41.85
73518;BME280;61766;60.318;25.044;2023-08-30T01:59:07;100817.73;;;16.86;42.18
73518;BME280;61766;60.318;25.044;2023-08-30T02:01:32;100814.94;;;16.96;41.88
73518;BME280;61766;60.318;25.044;2023-08-30T02:03:58;100812.19;;;16.80;41.64
73518;BME280;61766;60.318;25.044;2023-08-30T02:06:28;100809.30;;;17.06;41.88
73518;BME280;61766;60.318;25.044;2023-08-30T02:08:54;100807.87;;;17.00;41.98
73518;BME280;61766;60.318;25.044;2023-08-30T02:11:19;100807.66;;;16.95;42.94
73518;BME280;61766;60.318;25.044;2023-08-30T02:13:43;100812.73;;;16.81;43.00
73518;BME280;61766;60.318;25.044;2023-08-30T02:16:08;100813.38;;;16.81;43.47
73518;BME280;61766;60.318;25.044;2023-08-30T02:18:34;100807.91;;;16.88;43.22
73518;BME280;61766;60.318;25.044;2023-08-30T02:20:59;100799.45;;;16.96;43.08
73518;BME280;61766;60.318;25.044;2023-08-30T02:23:26;100785.05;;;17.04;42.94
73518;BME280;61766;60.318;25.044;2023-08-30T02:25:51;100778.80;;;17.11;42.72
73518;BME280;61766;60.318;25.044;2023-08-30T02:28:17;100770.94;;;17.17;42.75
73518;BME280;61766;60.318;25.044;2023-08-30T02:30:42;100762.78;;;17.22;43.06
73518;BME280;61766;60.318;25.044;2023-08-30T02:33:08;100754.35;;;17.28;43.42
73518;BME280;61766;60.318;25.044;2023-08-30T02:35:34;100759.56;;;17.24;44.00
73518;BME280;61766;60.318;25.044;2023-08-30T02:37:59;100762.14;;;17.39;43.86
73518;BME280;61766;60.318;25.044;2023-08-30T02:40:25;100766.25;;;17.25;44.00
73518;BME280;61766;60.318;25.044;2023-08-30T02:42:51;100768.84;;;17.56;44.15
73518;BME280;61766;60.318;25.044;2023-08-30T02:45:17;100772.34;;;17.70;43.58
73518;BME280;61766;60.318;25.044;2023-08-30T02:47:44;100767.28;;;17.53;43.32
73518;BME280;61766;60.318;25.044;2023-08-30T02:50:09;100758.87;;;17.40;43.07
73518;BME280;61766;60.318;25.044;2023-08-30T02:52:34;100752.37;;;17.36;43.48
73518;BME280;61766;60.318;25.044;2023-08-30T02:55:00;100747.80;;;17.54;43.64
73518;BME280;61766;60.318;25.044;2023-08-30T02:57:25;100738.74;;;17.41;43.58
73518;BME280;61766;60.318;25.044;2023-08-30T02:59:51;100718.64;;;17.73;43.28
73518;BME280;61766;60.318;25.044;2023-08-30T03:02:17;100704.73;;;17.61;43.80
73518;BME280;61766;60.318;25.044;2023-08-30T03:04:43;100699.36;;;17.37;44.30
73518;BME280;61766;60.318;25.044;2023-08-30T03:07:08;100690.08;;;17.40;43.92
73518;BME280;61766;60.318;25.044;2023-08-30T03:09:34;100692.65;;;17.58;44.05
73518;BME280;61766;60.318;25.044;2023-08-30T03:12:00;100699.88;;;17.65;44.28
73518;BME280;61766;60.318;25.044;2023-08-30T03:14:25;100705.08;;;17.62;44.70
73518;BME280;61766;60.318;25.044;2023-08-30T03:16:51;100707.57;;;17.51;45.17
73518;BME280;61766;60.318;25.044;2023-08-30T03:19:17;100702.48;;;17.66;45.16
73518;BME280;61766;60.318;25.044;2023-08-30T03:21:43;100708.88;;;17.42;45.07
73518;BME280;61766;60.318;25.044;2023-08-30T03:24:09;100714.26;;;17.68;45.12
73518;BME280;61766;60.318;25.044;2023-08-30T03:26:34;100713.72;;;17.92;45.19
73518;BME280;61766;60.318;25.044;2023-08-30T03:29:00;100715.31;;;17.77;45.24
73518;BME280;61766;60.318;25.044;2023-08-30T03:31:26;100727.47;;;17.79;45.40
73518;BME280;61766;60.318;25.044;2023-08-30T03:33:52;100744.09;;;17.35;45.84
73518;BME280;61766;60.318;25.044;2023-08-30T03:36:18;100755.45;;;17.65;45.85
73518;BME280;61766;60.318;25.044;2023-08-30T03:38:44;100763.69;;;17.61;44.96
73518;BME280;61766;60.318;25.044;2023-08-30T03:41:10;100770.47;;;17.48;46.17
73518;BME280;61766;60.318;25.044;2023-08-30T03:43:35;100771.77;;;18.01;45.54
73518;BME280;61766;60.318;25.044;2023-08-30T03:46:01;100767.70;;;17.84;45.48
73518;BME280;61766;60.318;25.044;2023-08-30T03:48:26;100767.17;;;18.27;44.75
73518;BME280;61766;60.318;25.044;2023-08-30T03:50:52;100764.09;;;18.23;44.68
73518;BME280;61766;60.318;25.044;2023-08-30T03:53:17;100764.39;;;18.30;44.74
73518;BME280;61766;60.318;25.044;2023-08-30T03:55:43;100763.12;;;18.11;45.24
73518;BME280;61766;60.318;25.044;2023-08-30T03:58:09;100755.88;;;17.99;44.70
73518;BME280;61766;60.318;25.044;2023-08-30T04:00:36;100740.33;;;18.05;44.90
73518;BME280;61766;60.318;25.044;2023-08-30T04:03:01;100724.06;;;18.21;45.27
73518;BME280;61766;60.318;25.044;2023-08-30T04:05:26;100713.92;;;18.18;45.67
73518;BME280;61766;60.318;25.044;2023-08-30T04:07:52;100714.13;;;18.07;45.18
73518;BME280;61766;60.318;25.044;2023-08-30T04:10:18;100711.81;;;18.25;45.10
73518;BME280;61766;60.318;25.044;2023-08-30T04:12:44;100713.95;;;18.26;45.31
73518;BME280;61766;60.318;25.044;2023-08-30T04:15:10;100705.51;;;18.30;44.83
73518;BME280;61766;60.318;25.044;2023-08-30T04:17:35;100697.00;;;18.28;45.72
73518;BME280;61766;60.318;25.044;2023-08-30T04:20:01;100695.74;;;18.13;45.98
73518;BME280;61766;60.318;25.044;2023-08-30T04:22:27;100704.97;;;18.40;45.67
73518;BME280;61766;60.318;25.044;2023-08-30T04:24:53;100707.93;;;18.54;45.20
73518;BME280;61766;60.318;25.044;2023-08-30T04:27:19;100706.88;;;18.12;45.86
73518;BME280;61766;60.318;25.044;2023-08-30T04:29:44;100713.89;;;18.58;45.55
73518;BME280;61766;60.318;25.044;2023-08-30T04:32:10;100715.89;;;18.59;46.01
73518;BME280;61766;60.318;25.044;2023-08-30T04:34:36;100710.87;;;18.68;46.06
73518;BME280;61766;60.318;25.044;2023-08-30T04:37:01;100706.85;;;18.74;45.60
73518;BME280;61766;60.318;25.044;2023-08-30T04:39:27;100699.77;;;18.45;45.13
73518;BME280;61766;60.318;25.044;2023-08-30T04:41:53;100697.82;;;18.49;45.21
73518;BME280;61766;60.318;25.044;2023-08-30T04:44:19;100693.43;;;18.48;45.97
73518;BME280;61766;60.318;25.044;2023-08-30T04:46:45;100695.04;;;18.74;46.24
73518;BME280;61766;60.318;25.044;2023-08-30T04:49:10;100697.14;;;18.80;45.90
73518;BME280;61766;60.318;25.044;2023-08-30T04:51:36;100688.73;;;18.38;45.97
73518;BME280;61766;60.318;25.044;2023-08-30T04:54:02;100679.92;;;18.51;46.13
73518;BME280;61766;60.318;25.044;2023-08-30T04:56:28;100683.22;;;19.12;45.70
73518;BME280;61766;60.318;25.044;2023-08-30T04:58:53;100683.97;;;19.01;45.91
73518;BME280;61766;60.318;25.044;2023-08-30T05:01:19;100677.57;;;18.91;45.14
73518;BME280;61766;60.318;25.044;2023-08-30T05:03:45;100670.32;;;18.97;45.69
73518;BME280;61766;60.318;25.044;2023-08-30T05:06:11;100668.43;;;19.06;45.12
73518;BME280;61766;60.318;25.044;2023-08-30T05:08:37;100671.80;;;19.15;45.15
73518;BME280;61766;60.318;25.044;2023-08-30T05:11:02;100669.24;;;19.15;45.67
73518;BME280;61766;60.318;25.044;2023-08-30T05:13:28;100669.15;;;19.28;45.17
73518;BME280;61766;60.318;25.044;2023-08-30T05:15:53;100663.42;;;19.17;45.72
73518;BME280;61766;60.318;25.044;2023-08-30T05:18:19;100651.40;;;19.09;45.74
73518;BME280;61766;60.318;25.044;2023-08-30T05:20:45;100650.42;;;18.71;47.03
73518;BME280;61766;60.318;25.044;2023-08-30T05:23:10;100665.10;;;18.94;46.46
73518;BME280;61766;60.318;25.044;2023-08-30T05:25:36;100661.83;;;18.89;46.76
73518;BME280;61766;60.318;25.044;2023-08-30T05:28:02;100653.04;;;19.30;46.01
73518;BME280;61766;60.318;25.044;2023-08-30T05:30:27;100652.14;;;19.07;46.71
73518;BME280;61766;60.318;25.044;2023-08-30T05:32:53;100654.71;;;19.12;45.69
73518;BME280;61766;60.318;25.044;2023-08-30T05:35:19;100655.37;;;19.16;46.48
73518;BME280;61766;60.318;25.044;2023-08-30T05:37:45;100656.67;;;19.28;46.33
73518;BME280;61766;60.318;25.044;2023-08-30T05:40:13;100657.05;;;19.27;45.97
73518;BME280;61766;60.318;25.044;2023-08-30T05:42:36;100664.06;;;19.09;47.42
73518;BME280;61766;60.318;25.044;2023-08-30T05:45:02;100670.15;;;19.37;46.76
73518;BME280;61766;60.318;25.044;2023-08-30T05:47:28;100678.23;;;19.40;47.10
73518;BME280;61766;60.318;25.044;2023-08-30T05:49:53;100678.25;;;19.38;46.35
73518;BME280;61766;60.318;25.044;2023-08-30T05:52:19;100665.65;;;19.72;46.23
73518;BME280;61766;60.318;25.044;2023-08-30T05:54:44;100655.48;;;19.71;46.10
73518;BME280;61766;60.318;25.044;2023-08-30T05:57:10;100661.57;;;19.63;46.61
73518;BME280;61766;60.318;25.044;2023-08-30T05:59:36;100667.84;;;19.98;46.36
73518;BME280;61766;60.318;25.044;2023-08-30T06:02:01;100656.34;;;19.84;45.30
73518;BME280;61766;60.318;25.044;2023-08-30T06:04:27;100655.47;;;19.64;45.44
73518;BME280;61766;60.318;25.044;2023-08-30T06:06:53;100656.90;;;20.20;46.43
73518;BME280;61766;60.318;25.044;2023-08-30T06:09:18;100660.58;;;20.31;46.19
73518;BME280;61766;60.318;25.044;2023-08-30T06:11:43;100662.23;;;20.32;46.04
73518;BME280;61766;60.318;25.044;2023-08-30T06:14:09;100666.23;;;20.36;46.31
73518;BME280;61766;60.318;25.044;2023-08-30T06:16:34;100666.91;;;19.90;46.06
73518;BME280;61766;60.318;25.044;2023-08-30T06:19:00;100667.38;;;20.00;45.77
73518;BME280;61766;60.318;25.044;2023-08-30T06:21:25;100669.64;;;20.29;45.99
73518;BME280;61766;60.318;25.044;2023-08-30T06:23:51;100667.32;;;20.10;45.78
73518;BME280;61766;60.318;25.044;2023-08-30T06:26:17;100669.81;;;20.21;44.96
73518;BME280;61766;60.318;25.044;2023-08-30T06:28:43;100675.67;;;19.81;46.75
73518;BME280;61766;60.318;25.044;2023-08-30T06:31:08;100680.24;;;20.17;46.24
73518;BME280;61766;60.318;25.044;2023-08-30T06:33:34;100685.84;;;19.90;47.20
73518;BME280;61766;60.318;25.044;2023-08-30T06:35:59;100683.14;;;19.98;46.81
73518;BME280;61766;60.318;25.044;2023-08-30T06:38:25;100677.91;;;19.88;46.17
73518;BME280;61766;60.318;25.044;2023-08-30T06:40:51;100673.24;;;20.03;46.42
73518;BME280;61766;60.318;25.044;2023-08-30T06:43:16;100672.56;;;20.00;46.31
73518;BME280;61766;60.318;25.044;2023-08-30T06:45:42;100673.61;;;20.60;46.44
73518;BME280;61766;60.318;25.044;2023-08-30T06:48:09;100675.90;;;20.49;46.44
73518;BME280;61766;60.318;25.044;2023-08-30T06:50:34;100685.09;;;20.42;45.95
73518;BME280;61766;60.318;25.044;2023-08-30T06:52:59;100684.77;;;20.24;44.95
73518;BME280;61766;60.318;25.044;2023-08-30T06:55:25;100683.64;;;20.32;45.92
73518;BME280;61766;60.318;25.044;2023-08-30T06:57:51;100687.70;;;20.16;46.84
73518;BME280;61766;60.318;25.044;2023-08-30T07:00:17;100697.08;;;20.28;47.15
73518;BME280;61766;60.318;25.044;2023-08-30T07:02:42;100703.40;;;20.07;47.01
73518;BME280;61766;60.318;25.044;2023-08-30T07:05:08;100711.87;;;20.08;47.41
73518;BME280;61766;60.318;25.044;2023-08-30T07:07:33;100717.13;;;20.02;46.65
73518;BME280;61766;60.318;25.044;2023-08-30T07:09:59;100721.44;;;19.68;47.73
73518;BME280;61766;60.318;25.044;2023-08-30T07:12:25;100711.89;;;19.84;47.23
73518;BME280;61766;60.318;25.044;2023-08-30T07:14:51;100700.90;;;19.54;48.97
73518;BME280;61766;60.318;25.044;2023-08-30T07:17:16;100703.52;;;19.66;48.40
73518;BME280;61766;60.318;25.044;2023-08-30T07:19:41;100705.11;;;20.03;48.53
73518;BME280;61766;60.318;25.044;2023-08-30T07:22:07;100691.82;;;20.33;48.36
73518;BME280;61766;60.318;25.044;2023-08-30T07:24:33;100663.90;;;20.14;47.82
73518;BME280;61766;60.318;25.044;2023-08-30T07:26:59;100647.68;;;19.96;48.11
73518;BME280;61766;60.318;25.044;2023-08-30T07:29:24;100639.36;;;20.11;48.33
73518;BME280;61766;60.318;25.044;2023-08-30T07:31:50;100631.06;;;20.03;48.86
73518;BME280;61766;60.318;25.044;2023-08-30T07:34:16;100620.94;;;19.92;48.68
73518;BME280;61766;60.318;25.044;2023-08-30T07:36:41;100610.26;;;20.62;48.35
73518;BME280;61766;60.318;25.044;2023-08-30T07:39:07;100603.09;;;20.14;48.39
73518;BME280;61766;60.318;25.044;2023-08-30T07:41:33;100593.79;;;20.13;49.09
73518;BME280;61766;60.318;25.044;2023-08-30T07:43:58;100580.69;;;20.29;49.70
73518;BME280;61766;60.318;25.044;2023-08-30T07:46:23;100573.60;;;20.23;49.46
73518;BME280;61766;60.318;25.044;2023-08-30T07:48:49;100566.24;;;20.42;48.81
73518;BME280;61766;60.318;25.044;2023-08-30T07:51:15;100552.62;;;19.89;49.43
73518;BME280;61766;60.318;25.044;2023-08-30T07:53:40;100533.44;;;20.28;50.01
73518;BME280;61766;60.318;25.044;2023-08-30T07:56:06;100495.31;;;20.40;49.82
73518;BME280;61766;60.318;25.044;2023-08-30T07:58:32;100471.51;;;20.23;50.37
73518;BME280;61766;60.318;25.044;2023-08-30T08:00:57;100449.71;;;20.10;49.86
73518;BME280;61766;60.318;25.044;2023-08-30T08:03:24;100434.00;;;20.02;50.65
73518;BME280;61766;60.318;25.044;2023-08-30T08:05:49;100432.20;;;19.83;50.66
73518;BME280;61766;60.318;25.044;2023-08-30T08:08:14;100414.49;;;20.03;50.88
73518;BME280;61766;60.318;25.044;2023-08-30T08:10:41;100402.23;;;19.55;51.45
73518;BME280;61766;60.318;25.044;2023-08-30T08:13:06;100397.73;;;19.88;50.99
73518;BME280;61766;60.318;25.044;2023-08-30T08:15:32;100394.60;;;19.92;50.57
73518;BME280;61766;60.318;25.044;2023-08-30T08:17:57;100385.22;;;20.21;51.16
73518;BME280;61766;60.318;25.044;2023-08-30T08:20:23;100369.76;;;20.04;50.73
73518;BME280;61766;60.318;25.044;2023-08-30T08:22:49;100355.63;;;19.03;52.79
73518;BME280;61766;60.318;25.044;2023-08-30T08:25:15;100341.83;;;19.62;52.24
73518;BME280;61766;60.318;25.044;2023-08-30T08:27:40;100325.59;;;19.82;51.94
73518;BME280;61766;60.318;25.044;2023-08-30T08:30:07;100312.73;;;19.88;51.65
73518;BME280;61766;60.318;25.044;2023-08-30T08:32:32;100296.99;;;19.98;51.50
73518;BME280;61766;60.318;25.044;2023-08-30T08:34:58;100282.03;;;19.66;52.30
73518;BME280;61766;60.318;25.044;2023-08-30T08:37:23;100263.05;;;19.92;51.76
73518;BME280;61766;60.318;25.044;2023-08-30T08:39:49;100240.70;;;19.80;51.82
73518;BME280;61766;60.318;25.044;2023-08-30T08:42:17;100223.62;;;19.52;52.37
73518;BME280;61766;60.318;25.044;2023-08-30T08:44:42;100208.74;;;19.33;52.66
73518;BME280;61766;60.318;25.044;2023-08-30T08:47:05;100208.38;;;19.23;53.43
73518;BME280;61766;60.318;25.044;2023-08-30T08:49:31;100207.50;;;19.28;53.51
73518;BME280;61766;60.318;25.044;2023-08-30T08:51:57;100220.37;;;19.41;52.60
73518;BME280;61766;60.318;25.044;2023-08-30T08:54:22;100238.34;;;19.63;52.92
73518;BME280;61766;60.318;25.044;2023-08-30T08:56:48;100242.97;;;20.01;52.03
73518;BME280;61766;60.318;25.044;2023-08-30T08:59:13;100237.52;;;19.93;52.31
73518;BME280;61766;60.318;25.044;2023-08-30T09:01:39;100240.22;;;19.88;51.21
73518;BME280;61766;60.318;25.044;2023-08-30T09:04:04;100237.51;;;19.90;51.62
73518;BME280;61766;60.318;25.044;2023-08-30T09:06:31;100235.15;;;20.11;51.36
73518;BME280;61766;60.318;25.044;2023-08-30T09:08:55;100222.76;;;20.20;51.14
73518;BME280;61766;60.318;25.044;2023-08-30T09:11:20;100194.61;;;20.32;51.04
73518;BME280;61766;60.318;25.044;2023-08-30T09:13:46;100162.79;;;20.62;50.65
73518;BME280;61766;60.318;25.044;2023-08-30T09:16:15;100150.31;;;20.35;50.87
73518;BME280;61766;60.318;25.044;2023-08-30T09:18:37;100147.50;;;20.37;51.13
73518;BME280;61766;60.318;25.044;2023-08-30T09:21:08;100137.93;;;20.46;50.61
73518;BME280;61766;60.318;25.044;2023-08-30T09:23:29;100127.63;;;20.22;50.81
73518;BME280;61766;60.318;25.044;2023-08-30T09:25:57;100141.96;;;20.67;49.90
73518;BME280;61766;60.318;25.044;2023-08-30T09:28:20;100160.24;;;20.72;49.47
73518;BME280;61766;60.318;25.044;2023-08-30T09:30:51;100186.46;;;20.35;50.31
73518;BME280;61766;60.318;25.044;2023-08-30T09:33:11;100207.42;;;20.53;49.99
73518;BME280;61766;60.318;25.044;2023-08-30T09:35:43;100216.52;;;20.22;50.10
73518;BME280;61766;60.318;25.044;2023-08-30T09:38:02;100226.85;;;20.40;49.73
73518;BME280;61766;60.318;25.044;2023-08-30T09:40:28;100238.37;;;20.85;49.29
73518;BME280;61766;60.318;25.044;2023-08-30T09:42:54;100280.67;;;20.58;49.12
73518;BME280;61766;60.318;25.044;2023-08-30T09:45:21;100367.19;;;20.60;48.55
73518;BME280;61766;60.318;25.044;2023-08-30T09:47:46;100412.65;;;20.56;48.73
73518;BME280;61766;60.318;25.044;2023-08-30T09:50:11;100438.94;;;20.11;50.58
73518;BME280;61766;60.318;25.044;2023-08-30T09:52:37;100455.79;;;19.80;51.43
73518;BME280;61766;60.318;25.044;2023-08-30T09:55:02;100460.32;;;19.95;50.98
73518;BME280;61766;60.318;25.044;2023-08-30T09:57:29;100466.10;;;19.70;51.72
73518;BME280;61766;60.318;25.044;2023-08-30T09:59:54;100467.76;;;20.01;51.34
73518;BME280;61766;60.318;25.044;2023-08-30T10:02:20;100465.69;;;20.05;51.53
73518;BME280;61766;60.318;25.044;2023-08-30T10:04:46;100457.34;;;19.45;52.72
73518;BME280;61766;60.318;25.044;2023-08-30T10:07:12;100447.51;;;19.99;52.17
73518;BME280;61766;60.318;25.044;2023-08-30T10:09:36;100435.91;;;20.29;51.44
73518;BME280;61766;60.318;25.044;2023-08-30T10:12:03;100422.51;;;20.21;50.86
73518;BME280;61766;60.318;25.044;2023-08-30T10:14:28;100410.57;;;20.62;49.31
73518;BME280;61766;60.318;25.044;2023-08-30T10:16:56;100398.84;;;20.24;50.79
73518;BME280;61766;60.318;25.044;2023-08-30T10:19:21;100389.39;;;20.55;50.02
73518;BME280;61766;60.318;25.044;2023-08-30T10:21:46;100390.82;;;20.33;50.17
73518;BME280;61766;60.318;25.044;2023-08-30T10:24:14;100390.80;;;20.29;49.96
73518;BME280;61766;60.318;25.044;2023-08-30T10:26:37;100393.94;;;19.86;50.97
73518;BME280;61766;60.318;25.044;2023-08-30T10:29:02;100394.58;;;20.47;50.82
73518;BME280;61766;60.318;25.044;2023-08-30T10:31:28;100387.43;;;20.37;50.14
73518;BME280;61766;60.318;25.044;2023-08-30T10:33:56;100378.94;;;20.35;50.66
73518;BME280;61766;60.318;25.044;2023-08-30T10:36:24;100386.70;;;19.98;51.52
73518;BME280;61766;60.318;25.044;2023-08-30T10:38:50;100394.00;;;19.13;53.41
73518;BME280;61766;60.318;25.044;2023-08-30T10:41:10;100390.25;;;18.90;55.28
73518;BME280;61766;60.318;25.044;2023-08-30T10:43:38;100386.54;;;19.16;54.91
73518;BME280;61766;60.318;25.044;2023-08-30T10:46:05;100386.80;;;18.97;56.51
73518;BME280;61766;60.318;25.044;2023-08-30T10:48:34;100388.56;;;18.82;56.72
73518;BME280;61766;60.318;25.044;2023-08-30T10:50:53;100390.36;;;19.36;56.35
73518;BME280;61766;60.318;25.044;2023-08-30T10:53:19;100383.45;;;17.66;59.65
73518;BME280;61766;60.318;25.044;2023-08-30T10:58:13;100377.11;;;18.37;59.00
73518;BME280;61766;60.318;25.044;2023-08-30T11:00:35;100376.12;;;18.44;58.25
73518;BME280;61766;60.318;25.044;2023-08-30T11:03:01;100369.67;;;18.67;58.59
73518;BME280;61766;60.318;25.044;2023-08-30T11:05:29;100368.48;;;18.26;59.50
73518;BME280;61766;60.318;25.044;2023-08-30T11:07:53;100365.18;;;19.07;57.91
73518;BME280;61766;60.318;25.044;2023-08-30T11:10:19;100360.43;;;18.88;58.64
73518;BME280;61766;60.318;25.044;2023-08-30T11:12:44;100359.54;;;19.23;57.20
73518;BME280;61766;60.318;25.044;2023-08-30T11:15:11;100361.02;;;19.86;55.65
73518;BME280;61766;60.318;25.044;2023-08-30T11:17:35;100361.70;;;19.15;57.00
73518;BME280;61766;60.318;25.044;2023-08-30T11:20:05;100360.34;;;19.56;55.86
73518;BME280;61766;60.318;25.044;2023-08-30T11:22:27;100356.36;;;19.91;55.22
73518;BME280;61766;60.318;25.044;2023-08-30T11:24:52;100351.98;;;20.58;54.30
73518;BME280;61766;60.318;25.044;2023-08-30T11:27:19;100354.29;;;20.55;54.08
73518;BME280;61766;60.318;25.044;2023-08-30T11:29:44;100351.28;;;20.25;53.68
73518;BME280;61766;60.318;25.044;2023-08-30T11:32:10;100347.15;;;20.64;53.08
73518;BME280;61766;60.318;25.044;2023-08-30T11:34:35;100347.60;;;20.67;53.17
73518;BME280;61766;60.318;25.044;2023-08-30T11:37:02;100345.20;;;20.80;52.78
73518;BME280;61766;60.318;25.044;2023-08-30T11:39:26;100347.04;;;20.67;52.31
73518;BME280;61766;60.318;25.044;2023-08-30T11:41:53;100346.86;;;21.21;52.08
73518;BME280;61766;60.318;25.044;2023-08-30T11:44:19;100346.31;;;21.50;51.37
73518;BME280;61766;60.318;25.044;2023-08-30T11:46:43;100341.81;;;21.25;50.65
73518;BME280;61766;60.318;25.044;2023-08-30T11:49:09;100341.48;;;21.36;51.34
73518;BME280;61766;60.318;25.044;2023-08-30T11:51:35;100334.59;;;21.30;50.71
73518;BME280;61766;60.318;25.044;2023-08-30T11:54:01;100330.64;;;21.47;51.42
73518;BME280;61766;60.318;25.044;2023-08-30T11:56:27;100325.14;;;21.25;51.72
73518;BME280;61766;60.318;25.044;2023-08-30T11:58:52;100323.96;;;21.37;50.89
73518;BME280;61766;60.318;25.044;2023-08-30T12:01:18;100318.71;;;21.58;50.98
73518;BME280;61766;60.318;25.044;2023-08-30T12:03:44;100316.47;;;21.80;50.27
73518;BME280;61766;60.318;25.044;2023-08-30T12:06:12;100314.86;;;21.92;49.93
73518;BME280;61766;60.318;25.044;2023-08-30T12:08:35;100310.81;;;21.77;49.76
73518;BME280;61766;60.318;25.044;2023-08-30T12:11:01;100306.94;;;21.27;49.53
73518;BME280;61766;60.318;25.044;2023-08-30T12:13:27;100307.82;;;22.27;49.01
73518;BME280;61766;60.318;25.044;2023-08-30T12:15:52;100304.74;;;22.12;48.87
73518;BME280;61766;60.318;25.044;2023-08-30T12:18:20;100306.56;;;22.59;48.77
73518;BME280;61766;60.318;25.044;2023-08-30T12:20:52;100302.44;;;21.78;49.23
73518;BME280;61766;60.318;25.044;2023-08-30T12:25:35;100289.32;;;22.47;48.43
73518;BME280;61766;60.318;25.044;2023-08-30T12:28:00;100287.74;;;22.58;48.41
73518;BME280;61766;60.318;25.044;2023-08-30T12:30:26;100288.77;;;22.79;48.35
73518;BME280;61766;60.318;25.044;2023-08-30T12:32:59;100288.71;;;22.82;48.18
73518;BME280;61766;60.318;25.044;2023-08-30T12:35:17;100292.80;;;22.62;47.97